• Join FlightAware (Why Join?)
  • Login
  • US Flag 
11:21PM EST


 

Airport Tracker/Info


-or-


 

Live Flight TrackerFlight Track Log ✈ GJS3710 ✈ 25-Apr-2013 ✈ KORD - KALB

Flight Track Log - Related Links

Times and Time Zones

All times are in EDT time to prevent confusion due to time zone crossing. See the GJS3710 flight status page for this flight to view local times or setup timezone preferences in your user account.

Time Position Orientation Groundspeed Altitude Reporting Facility
EDT Latitude Longitude Course Direction KTS MPH feet Rate Location/Type
09:06PM 42.0000 -87.9500 90° East 156 180 1,700  Level Chicago TRACON
09:07PM 42.0333 -87.9167 37° Northeast 221 254 3,100 2,100 Climbing Chicago TRACON
09:08PM 42.0833 -87.8500 45° Northeast 270 311 5,700 2,640 Climbing Chicago TRACON
09:09PM 42.1724 -87.3329 66° East  Level FlightAware Approximate
09:09PM 42.1167 -87.7500 66° East 288 331 8,500  Level Chicago TRACON
09:10PM 42.2214 -87.1859 66° East  Level FlightAware Approximate
09:10PM 42.1292 -87.6761 77° East 291 335 10,600  Level Chicago Center
09:11PM 42.2667 -87.0377 90° East  Level FlightAware Approximate
09:11PM 42.1631 -87.5383 72° East 325 374 12,800  Level Chicago Center
09:12PM 42.1958 -87.4072 71° East 366 421 14,700 1,860 Climbing Chicago Center
09:13PM 42.2283 -87.2711 72° East 380 437 16,700 1,740 Climbing Chicago Center
09:14PM 42.2622 -87.1308 72° East 392 451 18,400 1,740 Climbing Chicago Center
09:15PM 42.2828 -86.9806 79° East 408 470 20,400 1,800 Climbing Chicago Center
09:16PM 42.2881 -86.8236 87° East 419 482 22,200 1,680 Climbing Chicago Center
09:17PM 42.2956 -86.6356 87° East 433 498 23,900 1,500 Climbing Chicago Center
09:18PM 42.3019 -86.4800 87° East 440 506 25,400 1,440 Climbing Chicago Center
09:19PM 42.3072 -86.3131 87° East 445 512 26,900 1,260 Climbing Chicago Center
09:20PM 42.3136 -86.1097 87° East 455 524 28,100 1,020 Climbing Chicago Center
09:21PM 42.3119 -85.9333 91° East 471 542 29,100 960 Climbing Chicago Center
09:22PM 42.3108 -85.7544 90° East 479 551 30,100 960 Climbing Chicago Center
09:23PM 42.3081 -85.5747 91° East 482 555 31,100 960 Climbing Chicago Center
09:24PM 42.3058 -85.3914 91° East 489 563 32,100 960 Climbing Chicago Center
09:25PM 42.3056 -85.2867 90° East 491 565 32,600 840 Climbing Cleveland Center
09:26PM 42.3047 -85.0983 90° East 496 571 33,400 780 Climbing Cleveland Center
09:27PM 42.2994 -84.9125 92° East 501 577 34,200 780 Climbing Cleveland Center
09:28PM 42.3083 -84.7250 86° East 501 577 35,000 360 Climbing Cleveland Center
09:29PM 42.3133 -84.5258 88° East 496 571 35,000  Level Cleveland Center
09:30PM 42.3258 -84.3383 85° East 491 565 35,000 420 Level Cleveland Center
09:31PM 42.3358 -84.1564 86° East 496 571 35,900 900 Climbing Cleveland Center
09:32PM 42.3456 -83.9714 86° East 496 571 36,800 540 Climbing Cleveland Center
09:33PM 42.3550 -83.7864 86° East 496 571 37,000 60 Climbing Cleveland Center
09:34PM 42.3622 -83.5956 87° East 496 571 37,000  Level Cleveland Center
09:35PM 42.3733 -83.4078 85° East 501 577 37,000  Level Cleveland Center
09:36PM 42.3794 -83.2367 87° East 501 577 37,000  Level Cleveland Center
09:37PM 42.3900 -83.0517 86° East 501 577 37,000  Level Cleveland Center
09:38PM 42.3958 -82.8661 88° East 496 571 37,000  Level Cleveland Center
09:39PM 42.4036 -82.6808 87° East 491 565 37,000  Level Cleveland Center
09:40PM 42.4111 -82.4928 87° East 496 571 37,000  Level Cleveland Center
09:41PM 42.4181 -82.3072 87° East 496 571 37,000  Level Cleveland Center
09:42PM 42.4272 -82.1022 86° East 496 571 37,000  Level Cleveland Center
09:43PM 42.4317 -81.9139 88° East 491 565 37,000  Level Cleveland Center
09:44PM 42.4400 -81.7256 87° East 496 571 37,000  Level Cleveland Center
09:45PM 42.4458 -81.5369 88° East 496 571 37,000  Level Cleveland Center
09:46PM 42.4494 -81.3428 88° East 497 572 37,000  Level Cleveland Center
09:47PM 42.4547 -81.1572 88° East 497 572 37,000  Level Cleveland Center
09:48PM 42.4594 -80.9717 88° East 491 565 37,000  Level Cleveland Center
09:49PM 42.4661 -80.8056 87° East 491 565 37,000  Level Cleveland Center
09:50PM 42.4706 -80.6169 88° East 498 573 37,000  Level Cleveland Center
09:51PM 42.4725 -80.4339 89° East 493 567 37,000  Level Cleveland Center
09:52PM 42.4764 -80.2453 88° East 493 567 37,000  Level Cleveland Center
09:53PM 42.4800 -80.0625 88° East 491 565 37,000  Level Cleveland Center
09:54PM 42.4850 -79.8569 88° East 491 565 37,000  Level Cleveland Center
09:55PM 42.4858 -79.6739 90° East 491 565 37,000  Level Cleveland Center
09:56PM 42.4906 -79.4878 88° East 491 565 37,000 -60 Level Cleveland Center
09:57PM 42.4906 -79.3078 90° East 491 565 36,900 -600 Descending Cleveland Center
09:58PM 42.5031 -79.1214 85° East 491 565 35,900 -960 Descending Cleveland Center
09:59PM 42.5153 -78.9381 85° East 496 571 35,000 -480 Descending Cleveland Center
10:00PM 42.5269 -78.7575 85° East 496 571 35,000  Level Cleveland Center
10:01PM 42.5386 -78.5739 85° East 491 565 35,000  Level Cleveland Center
10:02PM 42.5497 -78.3875 85° East 491 565 35,000 -300 Level Cleveland Center
10:03PM 42.5628 -78.2039 84° East 491 565 34,500 -960 Descending Cleveland Center
10:04PM 42.5736 -78.0203 85° East 491 565 33,100 -1,200 Descending Cleveland Center
10:05PM 42.5839 -77.8392 86° East 486 559 32,100 -960 Descending Cleveland Center
10:06PM 42.5947 -77.6808 85° East 479 551 31,200 -600 Descending Cleveland Center
10:07PM 42.6044 -77.4969 86° East 479 551 31,000 -120 Descending Cleveland Center
10:08PM 42.6139 -77.3075 86° East 484 557 31,000  Level Cleveland Center
10:09PM 42.6231 -77.1208 86° East 490 564 31,000  Level Cleveland Center
10:09PM 42.6292 -77.0208 85° East 486 559 31,000 -300 Level Boston Center
10:10PM 42.6378 -76.8522 86° East 505 581 30,600 -720 Descending Boston Center
10:11PM 42.6469 -76.6636 86° East 505 581 29,600 -1,020 Descending Boston Center
10:12PM 42.6558 -76.4778 86° East 498 573 28,600 -1,140 Descending Boston Center
10:13PM 42.6642 -76.2975 86° East 488 562 27,400 -1,440 Descending Boston Center
10:14PM 42.6719 -76.1256 86° East 469 540 25,800 -1,920 Descending Boston Center
10:15PM 42.6803 -75.9283 87° East 464 534 23,600 -2,040 Descending Boston Center
10:16PM 42.6875 -75.7564 87° East 464 534 21,800 -1,740 Descending Boston Center
10:17PM 42.6925 -75.5872 88° East 457 526 20,200 -1,620 Descending Boston Center
10:18PM 42.6989 -75.4236 87° East 446 513 18,600 -1,500 Descending Boston Center
10:19PM 42.7072 -75.2600 86° East 440 506 17,300 -1,500 Descending Boston Center
10:20PM 42.7108 -75.1075 88° East 422 486 15,700 -1,620 Descending Boston Center
10:21PM 42.7164 -74.9636 87° East 396 456 14,100 -1,620 Descending Boston Center
10:22PM 42.7214 -74.8225 87° East 383 441 12,500 -1,500 Descending Boston Center
10:23PM 42.7219 -74.6953 90° East 364 419 11,100 -900 Descending Boston Center
10:24PM 42.7258 -74.5939 87° East 356 410 11,000 -120 Descending Boston Center
10:24PM 42.7269 -74.5486 88° East 359 413 11,000 -120 Level Boston Center
10:25PM 42.7306 -74.4639 87° East 348 400 10,900 -240 Descending Boston Center
10:25PM 42.7225 -74.4353 111° Southeast 340 391 10,800 -1,080 Descending Boston Center
10:26PM 42.6933 -74.3214 109° East 302 348 9,500 -1,320 Descending Boston Center
10:27PM 42.6756 -74.2531 109° East 285 328 8,600 -1,320 Descending Boston Center
10:27PM 42.6697 -74.2303 109° East 287 330 8,200 -1,500 Descending Boston Center
10:28PM 42.6422 -74.1253 110° East 273 314 6,700 -1,500 Descending Boston Center
10:29PM 42.6225 -74.0372 107° East 261 300 5,300 -1,320 Descending Boston Center
10:30PM 42.6158 -73.9297 95° East 242 278 3,900 -1,320 Descending Boston Center
10:31PM 42.6142 -73.8872 93° East 198 228 3,100 -1,320 Descending Boston Center
10:31PM 42.6167 -73.8564 84° East 215 247 2,600 -1,140 Descending Boston Center
10:32PM 42.6233 -73.8228 75° East 162 186 2,000 -240 Descending Boston Center
10:32PM 42.6092 -73.7858 118° Southeast 207 238 2,400 840 Climbing Boston Center